Longtown, North Carolina
Current Conditions -  °F | °C
As of 6:15 AM on Wednesday 26 Nov 2014 (Local Time) from KMWK Reporting Station
Moderate Rain Moderate Rain  
Wind Chill: 39°   Ceiling: 4000
Heat Index: 43°   Visibility: 5mi
Dew Point: 41°   Wind: 7mph
Humidity: 93%   Direction: 50°NE
Pressure: 30.01"   Gusts: NA
Location:  36.2374°N, 80.6343°W
Report Text: KMWK 261115Z AUTO 05006KT 5SM RA SCT011 BKN040 OVC060 06/05 A3001 RMK AO2 P0006 T00610050
Loading
Personal Weather Stations






























Interactive Weather Map New forecast layout! Learn more

10-Day Weather Forecast

Advertisements
Track Severe Weather on mobile